sensor_id;sensor_type;location;lat;lon;timestamp;pressure;altitude;pressure_sealevel;temperature;humidity
60725;BME280;59881;36.722;-4.462;2023-08-12T00:00:19;101294.75;;;25.20;68.01
60725;BME280;59881;36.722;-4.462;2023-08-12T00:02:46;101295.06;;;25.17;67.82
60725;BME280;59881;36.722;-4.462;2023-08-12T00:05:12;101202.03;;;24.53;68.16
60725;BME280;59881;36.722;-4.462;2023-08-12T00:07:39;101063.34;;;23.65;68.03
60725;BME280;59881;36.722;-4.462;2023-08-12T00:10:09;101286.50;;;24.98;68.53
60725;BME280;59881;36.722;-4.462;2023-08-12T00:12:35;101295.72;;;25.04;68.27
60725;BME280;59881;36.722;-4.462;2023-08-12T00:15:02;101250.47;;;24.76;68.13
60725;BME280;59881;36.722;-4.462;2023-08-12T00:17:28;101293.03;;;25.04;68.22
60725;BME280;59881;36.722;-4.462;2023-08-12T00:19:54;101286.78;;;25.04;68.54
60725;BME280;59881;36.722;-4.462;2023-08-12T00:22:19;101280.16;;;25.06;67.76
60725;BME280;59881;36.722;-4.462;2023-08-12T00:24:45;101280.53;;;25.03;68.17
60725;BME280;59881;36.722;-4.462;2023-08-12T00:27:10;101281.09;;;24.98;67.87
60725;BME280;59881;36.722;-4.462;2023-08-12T00:29:36;101266.38;;;24.86;68.24
60725;BME280;59881;36.722;-4.462;2023-08-12T00:32:02;101305.91;;;24.94;68.64
60725;BME280;59881;36.722;-4.462;2023-08-12T00:34:28;101277.25;;;24.93;68.80
60725;BME280;59881;36.722;-4.462;2023-08-12T00:36:53;101270.22;;;24.92;68.70
60725;BME280;59881;36.722;-4.462;2023-08-12T00:39:19;101031.72;;;23.44;69.02
60725;BME280;59881;36.722;-4.462;2023-08-12T00:41:45;101021.34;;;23.41;69.38
60725;BME280;59881;36.722;-4.462;2023-08-12T00:44:10;101230.84;;;24.45;69.57
60725;BME280;59881;36.722;-4.462;2023-08-12T00:46:38;101031.38;;;23.47;69.34
60725;BME280;59881;36.722;-4.462;2023-08-12T00:49:04;100968.69;;;23.01;69.76
60725;BME280;59881;36.722;-4.462;2023-08-12T00:51:30;101252.69;;;24.73;70.02
60725;BME280;59881;36.722;-4.462;2023-08-12T00:53:57;101254.00;;;24.77;70.34
60725;BME280;59881;36.722;-4.462;2023-08-12T00:56:23;101258.94;;;24.73;70.65
60725;BME280;59881;36.722;-4.462;2023-08-12T00:58:49;101253.88;;;24.70;70.93
60725;BME280;59881;36.722;-4.462;2023-08-12T01:01:15;101256.78;;;24.69;71.28
60725;BME280;59881;36.722;-4.462;2023-08-12T01:03:43;101186.38;;;24.26;71.12
60725;BME280;59881;36.722;-4.462;2023-08-12T01:06:08;101246.56;;;24.64;71.25
60725;BME280;59881;36.722;-4.462;2023-08-12T01:08:35;101109.03;;;23.73;71.56
60725;BME280;59881;36.722;-4.462;2023-08-12T01:11:34;101264.63;;;24.55;71.48
60725;BME280;59881;36.722;-4.462;2023-08-12T01:14:14;101241.78;;;24.51;71.63
60725;BME280;59881;36.722;-4.462;2023-08-12T01:16:44;101233.34;;;24.46;71.58
60725;BME280;59881;36.722;-4.462;2023-08-12T01:19:34;101106.22;;;23.67;71.82
60725;BME280;59881;36.722;-4.462;2023-08-12T01:22:01;101235.09;;;24.39;71.97
60725;BME280;59881;36.722;-4.462;2023-08-12T01:24:34;101230.72;;;24.38;72.05
60725;BME280;59881;36.722;-4.462;2023-08-12T01:27:01;100948.81;;;22.70;72.50
60725;BME280;59881;36.722;-4.462;2023-08-12T01:29:26;101218.28;;;24.37;72.47
60725;BME280;59881;36.722;-4.462;2023-08-12T01:36:58;101216.78;;;24.34;72.91
60725;BME280;59881;36.722;-4.462;2023-08-12T01:39:26;101222.34;;;24.33;73.00
60725;BME280;59881;36.722;-4.462;2023-08-12T01:41:53;101213.25;;;24.34;72.97
60725;BME280;59881;36.722;-4.462;2023-08-12T01:44:19;101211.22;;;24.36;73.32
60725;BME280;59881;36.722;-4.462;2023-08-12T01:46:45;101251.41;;;24.37;73.28
60725;BME280;59881;36.722;-4.462;2023-08-12T01:49:10;101186.63;;;24.16;73.20
60725;BME280;59881;36.722;-4.462;2023-08-12T01:51:36;101159.66;;;24.01;73.16
60725;BME280;59881;36.722;-4.462;2023-08-12T01:54:01;101213.25;;;24.34;73.29
60725;BME280;59881;36.722;-4.462;2023-08-12T01:56:27;101207.38;;;24.30;73.18
60725;BME280;59881;36.722;-4.462;2023-08-12T01:58:53;101205.88;;;24.28;72.99
60725;BME280;59881;36.722;-4.462;2023-08-12T02:01:18;101132.53;;;23.80;73.33
60725;BME280;59881;36.722;-4.462;2023-08-12T02:03:44;101139.94;;;23.78;73.34
60725;BME280;59881;36.722;-4.462;2023-08-12T02:06:09;101202.25;;;24.21;73.65
60725;BME280;59881;36.722;-4.462;2023-08-12T02:08:35;101183.16;;;24.07;73.82
60725;BME280;59881;36.722;-4.462;2023-08-12T02:11:00;101156.72;;;23.88;73.46
60725;BME280;59881;36.722;-4.462;2023-08-12T02:13:26;101160.06;;;23.90;73.78
60725;BME280;59881;36.722;-4.462;2023-08-12T02:15:51;101175.25;;;24.06;73.66
60725;BME280;59881;36.722;-4.462;2023-08-12T02:18:17;101156.22;;;23.84;73.68
60725;BME280;59881;36.722;-4.462;2023-08-12T02:20:42;101140.81;;;23.78;73.83
60725;BME280;59881;36.722;-4.462;2023-08-12T02:23:08;101125.50;;;23.79;73.65
60725;BME280;59881;36.722;-4.462;2023-08-12T02:25:33;101184.78;;;24.16;73.42
60725;BME280;59881;36.722;-4.462;2023-08-12T02:27:59;101185.44;;;24.19;73.23
60725;BME280;59881;36.722;-4.462;2023-08-12T02:30:24;101181.72;;;24.20;72.97
60725;BME280;59881;36.722;-4.462;2023-08-12T02:32:50;100955.00;;;22.79;72.49
60725;BME280;59881;36.722;-4.462;2023-08-12T02:35:18;101147.56;;;23.97;72.20
60725;BME280;59881;36.722;-4.462;2023-08-12T02:37:43;101177.91;;;24.14;71.85
60725;BME280;59881;36.722;-4.462;2023-08-12T02:40:09;100685.00;;;21.12;71.48
60725;BME280;59881;36.722;-4.462;2023-08-12T02:42:36;101172.22;;;24.09;72.01
60725;BME280;59881;36.722;-4.462;2023-08-12T02:45:01;101168.22;;;24.05;71.91
60725;BME280;59881;36.722;-4.462;2023-08-12T02:47:27;100920.72;;;22.50;71.38
60725;BME280;59881;36.722;-4.462;2023-08-12T02:49:53;101141.06;;;23.91;71.80
60725;BME280;59881;36.722;-4.462;2023-08-12T02:52:18;101166.34;;;24.05;71.47
60725;BME280;59881;36.722;-4.462;2023-08-12T02:54:44;101160.81;;;24.07;71.17
60725;BME280;59881;36.722;-4.462;2023-08-12T02:57:09;100890.03;;;22.44;70.86
60725;BME280;59881;36.722;-4.462;2023-08-12T02:59:35;101157.75;;;24.10;71.05
60725;BME280;59881;36.722;-4.462;2023-08-12T03:02:00;101196.44;;;24.09;70.81
60725;BME280;59881;36.722;-4.462;2023-08-12T03:04:26;100823.16;;;21.87;70.88
60725;BME280;59881;36.722;-4.462;2023-08-12T03:06:51;101140.31;;;23.98;70.94
60725;BME280;59881;36.722;-4.462;2023-08-12T03:09:17;101135.13;;;23.96;70.83
60725;BME280;59881;36.722;-4.462;2023-08-12T03:11:43;101152.53;;;24.08;71.08
60725;BME280;59881;36.722;-4.462;2023-08-12T03:14:09;101154.22;;;24.09;71.31
60725;BME280;59881;36.722;-4.462;2023-08-12T03:16:35;101116.84;;;23.91;71.44
60725;BME280;59881;36.722;-4.462;2023-08-12T03:19:00;101148.63;;;24.11;71.19
60725;BME280;59881;36.722;-4.462;2023-08-12T03:21:26;101141.41;;;24.11;71.46
60725;BME280;59881;36.722;-4.462;2023-08-12T03:23:51;101059.41;;;23.53;71.31
60725;BME280;59881;36.722;-4.462;2023-08-12T03:26:17;100886.50;;;22.52;71.81
60725;BME280;59881;36.722;-4.462;2023-08-12T03:28:42;101183.63;;;24.11;71.97
60725;BME280;59881;36.722;-4.462;2023-08-12T03:31:08;101143.44;;;24.09;71.94
60725;BME280;59881;36.722;-4.462;2023-08-12T03:33:33;101106.41;;;23.88;72.52
60725;BME280;59881;36.722;-4.462;2023-08-12T03:35:59;100942.88;;;22.83;72.62
60725;BME280;59881;36.722;-4.462;2023-08-12T03:38:24;101073.75;;;23.68;72.55
60725;BME280;59881;36.722;-4.462;2023-08-12T03:40:50;101211.28;;;24.05;72.51
60725;BME280;59881;36.722;-4.462;2023-08-12T03:43:16;101036.81;;;23.39;72.79
60725;BME280;59881;36.722;-4.462;2023-08-12T03:45:42;101105.09;;;23.84;73.41
60725;BME280;59881;36.722;-4.462;2023-08-12T03:48:08;101091.38;;;23.71;73.17
60725;BME280;59881;36.722;-4.462;2023-08-12T03:50:34;101154.75;;;24.05;73.33
60725;BME280;59881;36.722;-4.462;2023-08-12T03:53:00;101121.19;;;23.92;73.71
60725;BME280;59881;36.722;-4.462;2023-08-12T03:55:26;101134.22;;;24.04;73.79
60725;BME280;59881;36.722;-4.462;2023-08-12T03:57:51;101139.44;;;24.05;74.17
60725;BME280;59881;36.722;-4.462;2023-08-12T04:00:17;100626.25;;;20.94;74.22
60725;BME280;59881;36.722;-4.462;2023-08-12T04:02:43;100664.56;;;21.11;74.11
60725;BME280;59881;36.722;-4.462;2023-08-12T04:05:08;101132.91;;;24.00;74.59
60725;BME280;59881;36.722;-4.462;2023-08-12T04:07:36;100854.41;;;22.27;74.62
60725;BME280;59881;36.722;-4.462;2023-08-12T04:10:02;101134.09;;;23.97;75.18
60725;BME280;59881;36.722;-4.462;2023-08-12T04:12:28;101118.34;;;23.94;75.37
60725;BME280;59881;36.722;-4.462;2023-08-12T04:14:53;100897.09;;;22.45;75.47
60725;BME280;59881;36.722;-4.462;2023-08-12T04:17:19;101133.88;;;23.84;75.87
60725;BME280;59881;36.722;-4.462;2023-08-12T04:19:44;101124.25;;;23.58;76.10
60725;BME280;59881;36.722;-4.462;2023-08-12T04:22:10;101002.50;;;22.79;75.77
60725;BME280;59881;36.722;-4.462;2023-08-12T04:24:35;101146.31;;;23.85;76.26
60725;BME280;59881;36.722;-4.462;2023-08-12T04:27:01;101130.56;;;23.73;76.36
60725;BME280;59881;36.722;-4.462;2023-08-12T04:29:26;101078.22;;;23.53;76.49
60725;BME280;59881;36.722;-4.462;2023-08-12T04:31:52;100891.25;;;22.34;76.47
60725;BME280;59881;36.722;-4.462;2023-08-12T04:34:18;101147.31;;;23.84;76.71
60725;BME280;59881;36.722;-4.462;2023-08-12T04:36:43;101132.38;;;23.81;76.95
60725;BME280;59881;36.722;-4.462;2023-08-12T04:39:09;101097.84;;;23.62;77.12
60725;BME280;59881;36.722;-4.462;2023-08-12T04:41:35;100932.38;;;22.34;76.94
60725;BME280;59881;36.722;-4.462;2023-08-12T04:44:04;101155.75;;;23.81;77.20
60725;BME280;59881;36.722;-4.462;2023-08-12T04:46:30;101129.56;;;23.66;77.19
60725;BME280;59881;36.722;-4.462;2023-08-12T04:48:56;101175.94;;;23.77;77.43
60725;BME280;59881;36.722;-4.462;2023-08-12T04:51:21;101131.59;;;23.64;77.37
60725;BME280;59881;36.722;-4.462;2023-08-12T04:53:47;100616.78;;;20.51;76.85
60725;BME280;59881;36.722;-4.462;2023-08-12T04:56:12;101125.75;;;23.61;77.27
60725;BME280;59881;36.722;-4.462;2023-08-12T04:58:38;101149.06;;;23.68;77.82
60725;BME280;59881;36.722;-4.462;2023-08-12T05:01:04;101145.38;;;23.69;77.90
60725;BME280;59881;36.722;-4.462;2023-08-12T05:03:29;101143.50;;;23.70;77.89
60725;BME280;59881;36.722;-4.462;2023-08-12T05:05:55;101025.09;;;22.92;77.51
60725;BME280;59881;36.722;-4.462;2023-08-12T05:08:20;101148.41;;;23.66;77.45
60725;BME280;59881;36.722;-4.462;2023-08-12T05:10:49;101150.41;;;23.64;77.86
60725;BME280;59881;36.722;-4.462;2023-08-12T05:13:15;101145.03;;;23.64;77.71
60725;BME280;59881;36.722;-4.462;2023-08-12T05:15:41;101137.22;;;23.54;78.03
60725;BME280;59881;36.722;-4.462;2023-08-12T05:18:07;101118.63;;;23.45;78.11
60725;BME280;59881;36.722;-4.462;2023-08-12T05:20:32;100897.72;;;22.08;78.21
60725;BME280;59881;36.722;-4.462;2023-08-12T05:22:58;100726.50;;;21.00;78.40
60725;BME280;59881;36.722;-4.462;2023-08-12T05:25:23;101145.25;;;23.63;78.67
60725;BME280;59881;36.722;-4.462;2023-08-12T05:27:49;101164.38;;;23.76;79.09
60725;BME280;59881;36.722;-4.462;2023-08-12T05:30:15;100896.00;;;22.07;78.51
60725;BME280;59881;36.722;-4.462;2023-08-12T05:32:41;101162.50;;;23.77;79.11
60725;BME280;59881;36.722;-4.462;2023-08-12T05:35:06;101156.75;;;23.80;78.88
60725;BME280;59881;36.722;-4.462;2023-08-12T05:37:32;101107.66;;;23.46;79.03
60725;BME280;59881;36.722;-4.462;2023-08-12T05:39:58;100703.75;;;21.12;79.14
60725;BME280;59881;36.722;-4.462;2023-08-12T05:42:23;101050.13;;;23.32;79.13
60725;BME280;59881;36.722;-4.462;2023-08-12T05:44:49;100931.69;;;22.71;79.02
60725;BME280;59881;36.722;-4.462;2023-08-12T05:47:14;101152.97;;;24.20;79.34
60725;BME280;59881;36.722;-4.462;2023-08-12T05:49:40;101154.34;;;24.31;79.03
60725;BME280;59881;36.722;-4.462;2023-08-12T05:52:05;101145.56;;;24.37;79.28
60725;BME280;59881;36.722;-4.462;2023-08-12T05:54:31;101067.97;;;24.03;78.67
60725;BME280;59881;36.722;-4.462;2023-08-12T05:56:57;101171.78;;;24.81;78.54
60725;BME280;59881;36.722;-4.462;2023-08-12T05:59:23;101179.81;;;25.04;78.36
60725;BME280;59881;36.722;-4.462;2023-08-12T06:01:48;101147.72;;;25.09;77.78
60725;BME280;59881;36.722;-4.462;2023-08-12T06:04:14;101178.78;;;25.50;76.60
60725;BME280;59881;36.722;-4.462;2023-08-12T06:06:39;101193.63;;;25.75;75.99
60725;BME280;59881;36.722;-4.462;2023-08-12T06:09:05;101106.13;;;25.48;74.61
60725;BME280;59881;36.722;-4.462;2023-08-12T06:11:30;101174.53;;;26.35;73.62
60725;BME280;59881;36.722;-4.462;2023-08-12T06:13:55;100956.19;;;25.32;72.43
60725;BME280;59881;36.722;-4.462;2023-08-12T06:16:21;100774.44;;;24.55;70.81
60725;BME280;59881;36.722;-4.462;2023-08-12T06:18:47;100944.34;;;26.05;69.19
60725;BME280;59881;36.722;-4.462;2023-08-12T06:21:12;100959.69;;;26.39;67.55
60725;BME280;59881;36.722;-4.462;2023-08-12T06:23:38;101200.53;;;28.23;66.05
60725;BME280;59881;36.722;-4.462;2023-08-12T06:26:03;100892.31;;;26.72;64.54
60725;BME280;59881;36.722;-4.462;2023-08-12T06:28:29;100805.38;;;26.42;63.12
60725;BME280;59881;36.722;-4.462;2023-08-12T06:30:54;101190.00;;;29.47;61.58
60725;BME280;59881;36.722;-4.462;2023-08-12T06:33:20;100983.44;;;28.00;60.00
60725;BME280;59881;36.722;-4.462;2023-08-12T06:35:46;101184.59;;;30.17;58.26
60725;BME280;59881;36.722;-4.462;2023-08-12T06:38:11;101197.91;;;30.57;57.52
60725;BME280;59881;36.722;-4.462;2023-08-12T06:40:38;101197.03;;;31.07;55.52
60725;BME280;59881;36.722;-4.462;2023-08-12T06:43:04;100896.69;;;29.42;53.90
60725;BME280;59881;36.722;-4.462;2023-08-12T06:45:29;101082.75;;;30.88;53.72
60725;BME280;59881;36.722;-4.462;2023-08-12T06:47:55;101181.41;;;31.58;52.81
60725;BME280;59881;36.722;-4.462;2023-08-12T06:50:20;100962.81;;;31.08;51.40
60725;BME280;59881;36.722;-4.462;2023-08-12T06:52:46;101185.72;;;32.85;49.79
60725;BME280;59881;36.722;-4.462;2023-08-12T06:55:11;100900.72;;;31.17;49.16
60725;BME280;59881;36.722;-4.462;2023-08-12T06:57:37;100949.59;;;31.78;48.15
60725;BME280;59881;36.722;-4.462;2023-08-12T07:00:03;101202.00;;;34.13;46.70
60725;BME280;59881;36.722;-4.462;2023-08-12T07:02:30;100979.25;;;33.31;45.59
60725;BME280;59881;36.722;-4.462;2023-08-12T07:04:55;101237.31;;;34.99;44.55
60725;BME280;59881;36.722;-4.462;2023-08-12T07:07:21;101105.69;;;34.78;43.62
60725;BME280;59881;36.722;-4.462;2023-08-12T07:09:47;101097.53;;;34.83;43.39
60725;BME280;59881;36.722;-4.462;2023-08-12T07:12:12;101184.16;;;35.61;42.18
60725;BME280;59881;36.722;-4.462;2023-08-12T07:14:38;100887.44;;;34.19;41.83
60725;BME280;59881;36.722;-4.462;2023-08-12T07:17:03;100887.22;;;34.48;40.70
60725;BME280;59881;36.722;-4.462;2023-08-12T07:19:29;100920.56;;;35.21;39.91
60725;BME280;59881;36.722;-4.462;2023-08-12T07:21:54;101199.47;;;37.18;38.54
60725;BME280;59881;36.722;-4.462;2023-08-12T07:24:20;101142.28;;;37.10;39.00
60725;BME280;59881;36.722;-4.462;2023-08-12T07:26:45;101133.03;;;37.32;37.99
60725;BME280;59881;36.722;-4.462;2023-08-12T07:29:11;100926.09;;;36.75;36.95
60725;BME280;59881;36.722;-4.462;2023-08-12T07:31:36;101001.19;;;37.42;36.42
60725;BME280;59881;36.722;-4.462;2023-08-12T07:34:02;101006.94;;;37.92;36.06
60725;BME280;59881;36.722;-4.462;2023-08-12T07:36:27;101052.06;;;38.81;34.96
60725;BME280;59881;36.722;-4.462;2023-08-12T07:38:53;101182.72;;;40.14;34.10
60725;BME280;59881;36.722;-4.462;2023-08-12T07:41:18;101078.44;;;39.52;33.29
60725;BME280;59881;36.722;-4.462;2023-08-12T07:43:44;101134.84;;;40.34;32.88
60725;BME280;59881;36.722;-4.462;2023-08-12T07:46:09;100868.97;;;39.18;32.47
60725;BME280;59881;36.722;-4.462;2023-08-12T07:48:35;101144.09;;;41.21;31.79
60725;BME280;59881;36.722;-4.462;2023-08-12T07:51:01;100885.84;;;39.70;31.36
60725;BME280;59881;36.722;-4.462;2023-08-12T07:53:26;100830.25;;;39.82;30.80
60725;BME280;59881;36.722;-4.462;2023-08-12T07:55:52;101218.84;;;42.43;29.79
60725;BME280;59881;36.722;-4.462;2023-08-12T07:58:18;101096.13;;;42.15;29.41
60725;BME280;59881;36.722;-4.462;2023-08-12T08:00:44;101096.47;;;42.27;28.85
60725;BME280;59881;36.722;-4.462;2023-08-12T08:03:09;101105.31;;;42.57;27.92
60725;BME280;59881;36.722;-4.462;2023-08-12T08:05:35;101175.41;;;44.31;26.85
60725;BME280;59881;36.722;-4.462;2023-08-12T08:08:00;101008.28;;;43.35;25.30
60725;BME280;59881;36.722;-4.462;2023-08-12T08:10:26;101183.88;;;44.66;25.58
60725;BME280;59881;36.722;-4.462;2023-08-12T08:12:51;101194.91;;;44.79;25.08
60725;BME280;59881;36.722;-4.462;2023-08-12T08:15:17;101225.84;;;44.87;25.59
60725;BME280;59881;36.722;-4.462;2023-08-12T08:17:43;101027.25;;;43.95;25.14
60725;BME280;59881;36.722;-4.462;2023-08-12T08:20:08;101204.56;;;45.22;25.21
60725;BME280;59881;36.722;-4.462;2023-08-12T08:22:35;101205.91;;;44.53;26.07
60725;BME280;59881;36.722;-4.462;2023-08-12T08:25:01;101031.59;;;42.97;27.00
60725;BME280;59881;36.722;-4.462;2023-08-12T08:27:26;101123.31;;;43.60;26.80
60725;BME280;59881;36.722;-4.462;2023-08-12T08:29:52;101209.97;;;44.02;26.50
60725;BME280;59881;36.722;-4.462;2023-08-12T08:32:18;101000.56;;;42.73;27.28
60725;BME280;59881;36.722;-4.462;2023-08-12T08:34:44;101237.41;;;43.81;26.65
60725;BME280;59881;36.722;-4.462;2023-08-12T08:37:09;101210.34;;;43.50;27.44
60725;BME280;59881;36.722;-4.462;2023-08-12T08:39:35;101009.13;;;42.21;27.49
60725;BME280;59881;36.722;-4.462;2023-08-12T08:42:02;101066.16;;;42.50;27.33
60725;BME280;59881;36.722;-4.462;2023-08-12T08:44:33;101231.25;;;43.70;26.86
60725;BME280;59881;36.722;-4.462;2023-08-12T08:46:59;101203.94;;;43.27;27.02
60725;BME280;59881;36.722;-4.462;2023-08-12T08:49:25;101210.69;;;42.33;28.38
60725;BME280;59881;36.722;-4.462;2023-08-12T08:51:52;101057.66;;;41.15;28.95
60725;BME280;59881;36.722;-4.462;2023-08-12T08:54:18;101213.81;;;43.56;27.82
60725;BME280;59881;36.722;-4.462;2023-08-12T08:56:44;101203.50;;;44.07;26.98
60725;BME280;59881;36.722;-4.462;2023-08-12T08:59:10;100843.78;;;42.13;26.88
60725;BME280;59881;36.722;-4.462;2023-08-12T09:01:37;101216.03;;;44.89;25.92
60725;BME280;59881;36.722;-4.462;2023-08-12T09:04:03;100837.31;;;42.99;25.12
60725;BME280;59881;36.722;-4.462;2023-08-12T09:06:31;100948.66;;;44.17;25.12
60725;BME280;59881;36.722;-4.462;2023-08-12T09:08:58;100934.44;;;44.19;24.50
60725;BME280;59881;36.722;-4.462;2023-08-12T09:11:24;101211.13;;;45.70;24.72
60725;BME280;59881;36.722;-4.462;2023-08-12T09:13:50;100881.91;;;43.11;25.24
60725;BME280;59881;36.722;-4.462;2023-08-12T09:16:15;101210.88;;;43.89;26.49
60725;BME280;59881;36.722;-4.462;2023-08-12T09:18:44;101214.13;;;43.68;27.09
60725;BME280;59881;36.722;-4.462;2023-08-12T09:21:10;101217.69;;;43.32;28.19
60725;BME280;59881;36.722;-4.462;2023-08-12T09:23:37;101219.63;;;42.90;28.85
60725;BME280;59881;36.722;-4.462;2023-08-12T09:26:12;101212.94;;;42.31;29.89
60725;BME280;59881;36.722;-4.462;2023-08-12T09:28:38;101168.09;;;42.48;29.45
60725;BME280;59881;36.722;-4.462;2023-08-12T09:31:03;100999.09;;;41.32;29.78
60725;BME280;59881;36.722;-4.462;2023-08-12T09:33:29;101205.75;;;42.16;30.64
60725;BME280;59881;36.722;-4.462;2023-08-12T09:35:54;101215.75;;;42.12;30.89
60725;BME280;59881;36.722;-4.462;2023-08-12T09:38:22;101177.50;;;41.62;31.36
60725;BME280;59881;36.722;-4.462;2023-08-12T09:40:48;101200.88;;;41.51;32.44
60725;BME280;59881;36.722;-4.462;2023-08-12T09:43:13;101192.50;;;41.13;32.97
60725;BME280;59881;36.722;-4.462;2023-08-12T09:45:40;101223.38;;;40.96;33.40
60725;BME280;59881;36.722;-4.462;2023-08-12T09:48:06;101179.88;;;40.24;34.38
60725;BME280;59881;36.722;-4.462;2023-08-12T09:50:33;101253.56;;;40.29;34.44
60725;BME280;59881;36.722;-4.462;2023-08-12T09:53:01;101033.47;;;39.57;33.90
60725;BME280;59881;36.722;-4.462;2023-08-12T09:55:29;101157.94;;;40.43;33.92
60725;BME280;59881;36.722;-4.462;2023-08-12T09:57:58;101228.91;;;40.67;34.35
60725;BME280;59881;36.722;-4.462;2023-08-12T10:00:24;101167.03;;;40.09;34.35
60725;BME280;59881;36.722;-4.462;2023-08-12T10:02:51;101267.84;;;41.24;33.54
60725;BME280;59881;36.722;-4.462;2023-08-12T10:05:34;101203.00;;;41.59;32.66
60725;BME280;59881;36.722;-4.462;2023-08-12T10:08:00;101213.06;;;42.07;31.95
60725;BME280;59881;36.722;-4.462;2023-08-12T10:10:30;101212.16;;;41.92;31.54
60725;BME280;59881;36.722;-4.462;2023-08-12T10:12:57;101179.88;;;41.69;31.57
60725;BME280;59881;36.722;-4.462;2023-08-12T10:15:23;101211.25;;;41.97;31.57
60725;BME280;59881;36.722;-4.462;2023-08-12T10:17:51;101205.91;;;42.06;31.02
60725;BME280;59881;36.722;-4.462;2023-08-12T10:20:22;101200.75;;;41.61;31.23
60725;BME280;59881;36.722;-4.462;2023-08-12T10:22:49;101213.59;;;41.52;31.78
60725;BME280;59881;36.722;-4.462;2023-08-12T10:25:15;101029.47;;;40.51;31.79
60725;BME280;59881;36.722;-4.462;2023-08-12T10:27:43;100835.19;;;39.07;31.91
60725;BME280;59881;36.722;-4.462;2023-08-12T10:30:09;101208.94;;;41.28;31.76
60725;BME280;59881;36.722;-4.462;2023-08-12T10:32:36;101198.09;;;41.51;31.64
60725;BME280;59881;36.722;-4.462;2023-08-12T10:35:02;101114.97;;;40.85;31.58
60725;BME280;59881;36.722;-4.462;2023-08-12T10:37:31;101187.53;;;41.15;31.69
60725;BME280;59881;36.722;-4.462;2023-08-12T10:39:58;101001.91;;;39.68;31.78
60725;BME280;59881;36.722;-4.462;2023-08-12T10:42:45;101197.00;;;40.55;33.07
60725;BME280;59881;36.722;-4.462;2023-08-12T10:45:12;101198.66;;;40.27;32.83
60725;BME280;59881;36.722;-4.462;2023-08-12T10:50:44;100950.31;;;35.77;37.01
60725;BME280;59881;36.722;-4.462;2023-08-12T10:55:56;101197.59;;;33.54;44.90
60725;BME280;59881;36.722;-4.462;2023-08-12T10:58:48;101212.66;;;32.69;47.69
60725;BME280;59881;36.722;-4.462;2023-08-12T11:01:17;101201.06;;;32.20;49.42
60725;BME280;59881;36.722;-4.462;2023-08-12T11:03:43;101147.47;;;31.72;50.01
60725;BME280;59881;36.722;-4.462;2023-08-12T11:06:10;101199.75;;;32.11;49.78
60725;BME280;59881;36.722;-4.462;2023-08-12T11:08:36;101199.16;;;31.60;51.81
60725;BME280;59881;36.722;-4.462;2023-08-12T11:11:02;101207.09;;;31.25;51.48
60725;BME280;59881;36.722;-4.462;2023-08-12T11:13:28;101168.16;;;30.87;53.58
60725;BME280;59881;36.722;-4.462;2023-08-12T11:16:06;101201.88;;;30.80;54.29
60725;BME280;59881;36.722;-4.462;2023-08-12T11:18:33;101200.25;;;30.53;55.59
60725;BME280;59881;36.722;-4.462;2023-08-12T11:20:58;101224.78;;;30.47;56.59
60725;BME280;59881;36.722;-4.462;2023-08-12T11:23:24;101197.97;;;30.50;57.00
60725;BME280;59881;36.722;-4.462;2023-08-12T11:25:50;101202.22;;;30.40;56.89
60725;BME280;59881;36.722;-4.462;2023-08-12T11:28:18;101196.53;;;30.48;57.51
60725;BME280;59881;36.722;-4.462;2023-08-12T11:30:45;101195.91;;;30.46;55.53
60725;BME280;59881;36.722;-4.462;2023-08-12T11:33:11;100967.34;;;28.90;57.30
60725;BME280;59881;36.722;-4.462;2023-08-12T11:35:37;101190.91;;;30.11;56.93
60725;BME280;59881;36.722;-4.462;2023-08-12T11:38:05;101188.06;;;29.99;58.41
60725;BME280;59881;36.722;-4.462;2023-08-12T11:40:31;101188.03;;;30.06;59.32
60725;BME280;59881;36.722;-4.462;2023-08-12T11:42:56;101191.00;;;29.98;58.85
60725;BME280;59881;36.722;-4.462;2023-08-12T11:45:25;101186.09;;;29.81;60.83
60725;BME280;59881;36.722;-4.462;2023-08-12T11:47:51;101165.72;;;29.59;60.76
60725;BME280;59881;36.722;-4.462;2023-08-12T11:50:25;101189.28;;;29.65;61.49
60725;BME280;59881;36.722;-4.462;2023-08-12T11:52:51;101155.88;;;29.58;62.58
60725;BME280;59881;36.722;-4.462;2023-08-12T11:55:17;101174.78;;;29.84;61.98
60725;BME280;59881;36.722;-4.462;2023-08-12T11:57:44;101170.25;;;29.78;61.99
60725;BME280;59881;36.722;-4.462;2023-08-12T12:00:11;101179.88;;;29.67;62.03
60725;BME280;59881;36.722;-4.462;2023-08-12T12:02:50;101180.78;;;29.48;62.23
60725;BME280;59881;36.722;-4.462;2023-08-12T12:05:17;101197.81;;;29.17;62.85
60725;BME280;59881;36.722;-4.462;2023-08-12T12:07:43;101172.38;;;28.91;64.37
60725;BME280;59881;36.722;-4.462;2023-08-12T12:10:19;101170.31;;;28.86;64.69
60725;BME280;59881;36.722;-4.462;2023-08-12T12:12:45;101154.84;;;28.87;65.62
60725;BME280;59881;36.722;-4.462;2023-08-12T12:15:13;101077.78;;;28.36;65.83
60725;BME280;59881;36.722;-4.462;2023-08-12T12:17:39;101165.28;;;28.97;66.58
60725;BME280;59881;36.722;-4.462;2023-08-12T12:20:07;101159.88;;;28.90;66.70
60725;BME280;59881;36.722;-4.462;2023-08-12T12:22:36;101174.06;;;28.85;66.47
60725;BME280;59881;36.722;-4.462;2023-08-12T12:25:10;101158.44;;;28.87;67.59
60725;BME280;59881;36.722;-4.462;2023-08-12T12:27:37;101156.13;;;28.78;68.23
60725;BME280;59881;36.722;-4.462;2023-08-12T12:30:04;101090.09;;;28.39;68.90
60725;BME280;59881;36.722;-4.462;2023-08-12T12:32:30;101149.72;;;28.59;70.09
60725;BME280;59881;36.722;-4.462;2023-08-12T12:34:56;101163.91;;;28.54;70.50
60725;BME280;59881;36.722;-4.462;2023-08-12T12:37:22;100916.31;;;26.95;70.49
60725;BME280;59881;36.722;-4.462;2023-08-12T12:39:47;100958.03;;;27.61;69.85
60725;BME280;59881;36.722;-4.462;2023-08-12T12:42:13;100985.13;;;27.88;68.90
60725;BME280;59881;36.722;-4.462;2023-08-12T12:44:38;101162.38;;;28.98;68.84
60725;BME280;59881;36.722;-4.462;2023-08-12T12:47:04;101124.78;;;29.02;68.03